EVY01 YPED-YSCB
Flight info
| Callsign | EVY01 |
|---|---|
| Flight time | 1h 22m |
| Altitude | 41000 |
| Route | DOLVU W142 AD H247 NATYA H21 WG W148 CB |
| Aircraft | FA7X/M-SBDE1E2E3FGHIJ1J4J5J7M3RWXYZ/LB1V1D1 |
Departure
| Time | 2026-04-23 21:44 |
|---|---|
| Airport | RAAF Base Edinburgh (YPED) |
Arrival
| Time | 2026-04-23 23:07 |
|---|---|
| Airport | Canberra Airport (YSCB) |
| Time | Latitude | Longitude | Altitude | Speed | Heading |
|---|---|---|---|---|---|
| 2026-04-23 21:14 | -34.71452 | 138.62134 | 79 ft | 0 kts | 41° |
| 2026-04-23 21:40 | -34.71451 | 138.62135 | 78 ft | 1 kts | 40° |
| 2026-04-23 21:40 | -34.71446 | 138.62141 | 78 ft | 0 kts | 40° |
| 2026-04-23 21:41 | -34.71439 | 138.62144 | 79 ft | 4 kts | 8° |
| 2026-04-23 21:41 | -34.71405 | 138.62129 | 78 ft | 7 kts | 1° |
| 2026-04-23 21:42 | -34.71341 | 138.62118 | 78 ft | 11 kts | 294° |
| 2026-04-23 21:42 | -34.71390 | 138.62035 | 77 ft | 6 kts | 226° |
| 2026-04-23 21:42 | -34.71410 | 138.61958 | 76 ft | 12 kts | 287° |
| 2026-04-23 21:42 | -34.71354 | 138.61861 | 75 ft | 15 kts | 310° |
| 2026-04-23 21:43 | -34.71275 | 138.61742 | 73 ft | 19 kts | 308° |
| 2026-04-23 21:43 | -34.71224 | 138.61659 | 72 ft | 9 kts | 306° |
| 2026-04-23 21:43 | -34.71180 | 138.61586 | 72 ft | 12 kts | 305° |
| 2026-04-23 21:43 | -34.71128 | 138.61497 | 73 ft | 13 kts | 307° |
| 2026-04-23 21:44 | -34.71074 | 138.61464 | 74 ft | 9 kts | 6° |
| 2026-04-23 21:44 | -34.70758 | 138.61520 | 73 ft | 96 kts | 8° |
| 2026-04-23 21:44 | -34.69890 | 138.61668 | 260 ft | 141 kts | 10° |
| 2026-04-23 21:44 | -34.68868 | 138.61832 | 946 ft | 159 kts | 8° |
| 2026-04-23 21:45 | -34.67633 | 138.61873 | 1005 ft | 206 kts | 353° |
| 2026-04-23 21:45 | -34.66255 | 138.61409 | 1342 ft | 220 kts | 347° |
| 2026-04-23 21:45 | -34.64720 | 138.60986 | 1788 ft | 227 kts | 350° |
| 2026-04-23 21:45 | -34.63174 | 138.60596 | 2708 ft | 231 kts | 349° |
| 2026-04-23 21:46 | -34.61589 | 138.60194 | 3632 ft | 240 kts | 349° |
| 2026-04-23 21:46 | -34.59936 | 138.59804 | 4559 ft | 246 kts | 355° |
| 2026-04-23 21:46 | -34.58269 | 138.60165 | 5502 ft | 255 kts | 28° |
| 2026-04-23 21:46 | -34.57047 | 138.61705 | 6443 ft | 268 kts | 63° |
| 2026-04-23 21:47 | -34.56755 | 138.63940 | 7393 ft | 280 kts | 97° |
| 2026-04-23 21:47 | -34.57504 | 138.66109 | 8328 ft | 290 kts | 123° |
| 2026-04-23 21:47 | -34.58706 | 138.68105 | 9255 ft | 292 kts | 116° |
| 2026-04-23 21:47 | -34.59355 | 138.70381 | 10186 ft | 294 kts | 101° |
| 2026-04-23 21:48 | -34.59841 | 138.72816 | 11118 ft | 299 kts | 101° |
| 2026-04-23 21:48 | -34.60337 | 138.75249 | 12045 ft | 303 kts | 102° |
| 2026-04-23 21:48 | -34.60853 | 138.77721 | 12975 ft | 307 kts | 102° |
| 2026-04-23 21:48 | -34.61387 | 138.80225 | 13901 ft | 312 kts | 103° |
| 2026-04-23 21:49 | -34.61940 | 138.82764 | 14831 ft | 317 kts | 103° |
| 2026-04-23 21:49 | -34.62515 | 138.85352 | 15756 ft | 323 kts | 104° |
| 2026-04-23 21:49 | -34.63110 | 138.87981 | 16690 ft | 328 kts | 105° |
| 2026-04-23 21:49 | -34.63731 | 138.90642 | 17627 ft | 334 kts | 106° |
| 2026-04-23 21:50 | -34.64382 | 138.93373 | 18566 ft | 340 kts | 106° |
| 2026-04-23 21:50 | -34.65037 | 138.96118 | 19499 ft | 345 kts | 106° |
| 2026-04-23 21:50 | -34.65704 | 138.98904 | 20426 ft | 351 kts | 106° |
| 2026-04-23 21:50 | -34.66390 | 139.01769 | 21366 ft | 356 kts | 106° |
| 2026-04-23 21:51 | -34.67073 | 139.04620 | 22291 ft | 360 kts | 106° |
| 2026-04-23 21:51 | -34.67770 | 139.07527 | 23221 ft | 363 kts | 106° |
| 2026-04-23 21:51 | -34.68471 | 139.10457 | 24142 ft | 365 kts | 106° |
| 2026-04-23 21:51 | -34.69185 | 139.13434 | 25081 ft | 367 kts | 106° |
| 2026-04-23 21:52 | -34.69890 | 139.16379 | 26004 ft | 367 kts | 106° |
| 2026-04-23 21:52 | -34.70599 | 139.19339 | 26935 ft | 366 kts | 106° |
| 2026-04-23 21:52 | -34.71302 | 139.22276 | 27858 ft | 364 kts | 106° |
| 2026-04-23 21:52 | -34.72002 | 139.25207 | 28786 ft | 361 kts | 106° |
| 2026-04-23 21:53 | -34.72689 | 139.28082 | 29704 ft | 356 kts | 106° |
| 2026-04-23 21:53 | -34.73367 | 139.30922 | 30660 ft | 351 kts | 107° |
| 2026-04-23 21:53 | -34.74038 | 139.33736 | 31594 ft | 345 kts | 106° |
| 2026-04-23 21:53 | -34.74696 | 139.36497 | 32519 ft | 337 kts | 106° |
| 2026-04-23 21:54 | -34.75328 | 139.39157 | 33428 ft | 328 kts | 107° |
| 2026-04-23 21:54 | -34.75951 | 139.41774 | 34374 ft | 317 kts | 107° |
| 2026-04-23 21:54 | -34.76544 | 139.44272 | 35303 ft | 305 kts | 107° |
| 2026-04-23 21:54 | -34.77115 | 139.46678 | 36201 ft | 292 kts | 107° |
| 2026-04-23 21:55 | -34.77655 | 139.48959 | 37084 ft | 275 kts | 107° |
| 2026-04-23 21:55 | -34.78167 | 139.51117 | 37849 ft | 259 kts | 107° |
| 2026-04-23 21:55 | -34.78698 | 139.53247 | 37679 ft | 279 kts | 109° |
| 2026-04-23 21:55 | -34.79359 | 139.55565 | 37647 ft | 289 kts | 112° |
| 2026-04-23 21:56 | -34.80112 | 139.57716 | 38431 ft | 272 kts | 118° |
| 2026-04-23 21:56 | -34.80989 | 139.59712 | 38738 ft | 272 kts | 125° |
| 2026-04-23 21:56 | -34.82117 | 139.61675 | 38453 ft | 291 kts | 133° |
| 2026-04-23 21:56 | -34.83347 | 139.63570 | 39068 ft | 276 kts | 123° |
| 2026-04-23 21:57 | -34.84206 | 139.65565 | 39422 ft | 277 kts | 117° |
| 2026-04-23 21:57 | -34.85072 | 139.67917 | 38209 ft | 327 kts | 114° |
| 2026-04-23 21:57 | -34.86054 | 139.70543 | 37639 ft | 353 kts | 115° |
| 2026-04-23 21:57 | -34.86926 | 139.73256 | 38519 ft | 339 kts | 105° |
| 2026-04-23 21:58 | -34.87602 | 139.76074 | 38228 ft | 362 kts | 107° |
| 2026-04-23 21:58 | -34.88208 | 139.79129 | 37635 ft | 385 kts | 98° |
| 2026-04-23 21:58 | -34.88531 | 139.82433 | 37342 ft | 401 kts | 96° |
| 2026-04-23 21:58 | -34.88860 | 139.85844 | 37335 ft | 413 kts | 97° |
| 2026-04-23 21:59 | -34.89236 | 139.89327 | 37335 ft | 423 kts | 98° |
| 2026-04-23 21:59 | -34.89668 | 139.92908 | 37337 ft | 434 kts | 98° |
| 2026-04-23 21:59 | -34.90151 | 139.96547 | 37335 ft | 444 kts | 99° |
| 2026-04-23 22:00 | -34.91298 | 140.04108 | 37340 ft | 461 kts | 101° |
| 2026-04-23 22:00 | -34.91955 | 140.07947 | 37340 ft | 467 kts | 102° |
| 2026-04-23 22:00 | -34.93422 | 140.15659 | 37343 ft | 470 kts | 104° |
| 2026-04-23 22:01 | -34.95089 | 140.23351 | 37757 ft | 473 kts | 106° |
| 2026-04-23 22:01 | -34.95971 | 140.27188 | 38223 ft | 471 kts | 106° |
| 2026-04-23 22:01 | -34.96853 | 140.31043 | 38681 ft | 468 kts | 105° |
| 2026-04-23 22:02 | -34.97525 | 140.34886 | 39073 ft | 467 kts | 98° |
| 2026-04-23 22:02 | -34.97758 | 140.38805 | 39420 ft | 465 kts | 90° |
| 2026-04-23 22:02 | -34.97792 | 140.42758 | 39696 ft | 466 kts | 90° |
| 2026-04-23 22:02 | -34.97824 | 140.46690 | 39954 ft | 466 kts | 90° |
| 2026-04-23 22:03 | -34.97856 | 140.50586 | 40192 ft | 466 kts | 90° |
| 2026-04-23 22:03 | -34.97886 | 140.54546 | 40383 ft | 467 kts | 90° |
| 2026-04-23 22:03 | -34.97915 | 140.58470 | 40597 ft | 467 kts | 90° |
| 2026-04-23 22:03 | -34.97943 | 140.62448 | 40834 ft | 467 kts | 90° |
| 2026-04-23 22:04 | -34.97969 | 140.66379 | 41030 ft | 467 kts | 90° |
| 2026-04-23 22:04 | -34.97995 | 140.70340 | 41242 ft | 466 kts | 90° |
| 2026-04-23 22:04 | -34.98018 | 140.74262 | 41366 ft | 467 kts | 90° |
| 2026-04-23 22:04 | -34.98040 | 140.78210 | 41373 ft | 469 kts | 90° |
| 2026-04-23 22:05 | -34.98082 | 140.86179 | 41381 ft | 470 kts | 90° |
| 2026-04-23 22:05 | -34.98118 | 140.94127 | 41376 ft | 468 kts | 90° |
| 2026-04-23 22:06 | -34.98148 | 141.01952 | 41377 ft | 465 kts | 90° |
| 2026-04-23 22:06 | -34.98174 | 141.09830 | 41383 ft | 463 kts | 90° |
| 2026-04-23 22:07 | -34.98194 | 141.17651 | 41374 ft | 463 kts | 90° |
| 2026-04-23 22:07 | -34.98209 | 141.25447 | 41369 ft | 464 kts | 90° |
| 2026-04-23 22:08 | -34.98219 | 141.33305 | 41371 ft | 464 kts | 90° |
| 2026-04-23 22:08 | -34.98224 | 141.41124 | 41370 ft | 464 kts | 90° |
| 2026-04-23 22:09 | -34.98223 | 141.48975 | 41374 ft | 464 kts | 90° |
| 2026-04-23 22:09 | -34.98217 | 141.56805 | 41376 ft | 464 kts | 90° |
| 2026-04-23 22:10 | -34.98207 | 141.64685 | 41375 ft | 463 kts | 90° |
| 2026-04-23 22:10 | -34.98191 | 141.72514 | 41384 ft | 462 kts | 90° |
| 2026-04-23 22:11 | -34.98170 | 141.80296 | 41390 ft | 462 kts | 90° |
| 2026-04-23 22:11 | -34.98145 | 141.88066 | 41391 ft | 461 kts | 90° |
| 2026-04-23 22:12 | -34.98114 | 141.95868 | 41399 ft | 462 kts | 90° |
| 2026-04-23 22:12 | -34.98078 | 142.03659 | 41402 ft | 462 kts | 90° |
| 2026-04-23 22:13 | -34.98037 | 142.11514 | 41401 ft | 467 kts | 90° |
| 2026-04-23 22:13 | -34.97991 | 142.19435 | 41402 ft | 472 kts | 90° |
| 2026-04-23 22:14 | -34.97939 | 142.27449 | 41398 ft | 477 kts | 90° |
| 2026-04-23 22:14 | -34.97881 | 142.35551 | 41392 ft | 482 kts | 90° |
| 2026-04-23 22:15 | -34.97817 | 142.43716 | 41396 ft | 488 kts | 90° |
| 2026-04-23 22:15 | -34.97747 | 142.52022 | 41392 ft | 494 kts | 90° |
| 2026-04-23 22:16 | -34.97669 | 142.60400 | 41397 ft | 496 kts | 90° |
| 2026-04-23 22:16 | -34.97586 | 142.68790 | 41399 ft | 495 kts | 90° |
| 2026-04-23 22:17 | -34.97498 | 142.77121 | 41404 ft | 493 kts | 90° |
| 2026-04-23 22:17 | -34.97404 | 142.85455 | 41400 ft | 493 kts | 90° |
| 2026-04-23 22:18 | -34.97304 | 142.93785 | 41405 ft | 493 kts | 90° |
| 2026-04-23 22:18 | -34.97199 | 143.02075 | 41422 ft | 492 kts | 90° |
| 2026-04-23 22:19 | -34.97088 | 143.10403 | 41416 ft | 493 kts | 90° |
| 2026-04-23 22:19 | -34.96972 | 143.18715 | 41420 ft | 492 kts | 90° |
| 2026-04-23 22:20 | -34.97095 | 143.27006 | 41422 ft | 490 kts | 96° |
| 2026-04-23 22:20 | -34.97636 | 143.35277 | 41422 ft | 490 kts | 96° |
| 2026-04-23 22:21 | -34.98161 | 143.43535 | 41423 ft | 489 kts | 96° |
| 2026-04-23 22:21 | -34.98676 | 143.51739 | 41417 ft | 489 kts | 97° |
| 2026-04-23 22:22 | -34.99186 | 143.59970 | 41417 ft | 488 kts | 97° |
| 2026-04-23 22:22 | -34.99691 | 143.68257 | 41417 ft | 488 kts | 96° |
| 2026-04-23 22:23 | -35.00183 | 143.76433 | 41417 ft | 488 kts | 96° |
| 2026-04-23 22:23 | -35.00673 | 143.84672 | 41424 ft | 488 kts | 96° |
| 2026-04-23 22:24 | -35.01156 | 143.92889 | 41422 ft | 487 kts | 96° |
| 2026-04-23 22:24 | -35.01631 | 144.01080 | 41419 ft | 487 kts | 96° |
| 2026-04-23 22:25 | -35.02102 | 144.09311 | 41416 ft | 487 kts | 96° |
| 2026-04-23 22:25 | -35.02568 | 144.17537 | 41439 ft | 487 kts | 96° |
| 2026-04-23 22:26 | -35.03026 | 144.25734 | 41442 ft | 487 kts | 96° |
| 2026-04-23 22:26 | -35.03480 | 144.33968 | 41446 ft | 486 kts | 96° |
| 2026-04-23 22:27 | -35.03926 | 144.42156 | 41444 ft | 485 kts | 97° |
| 2026-04-23 22:27 | -35.04365 | 144.50311 | 41443 ft | 485 kts | 97° |
| 2026-04-23 22:28 | -35.04799 | 144.58491 | 41443 ft | 485 kts | 97° |
| 2026-04-23 22:28 | -35.05228 | 144.66670 | 41442 ft | 484 kts | 96° |
| 2026-04-23 22:29 | -35.05653 | 144.74875 | 41444 ft | 484 kts | 96° |
| 2026-04-23 22:29 | -35.06070 | 144.83046 | 41443 ft | 484 kts | 96° |
| 2026-04-23 22:30 | -35.06482 | 144.91214 | 41441 ft | 484 kts | 96° |
| 2026-04-23 22:30 | -35.06887 | 144.99355 | 41446 ft | 483 kts | 96° |
| 2026-04-23 22:31 | -35.07286 | 145.07492 | 41449 ft | 482 kts | 96° |
| 2026-04-23 22:31 | -35.07680 | 145.15628 | 41449 ft | 482 kts | 96° |
| 2026-04-23 22:32 | -35.08066 | 145.23729 | 41455 ft | 481 kts | 96° |
| 2026-04-23 22:32 | -35.08450 | 145.31897 | 41462 ft | 481 kts | 96° |
| 2026-04-23 22:33 | -35.08824 | 145.39963 | 41461 ft | 481 kts | 96° |
| 2026-04-23 22:33 | -35.09197 | 145.48109 | 41452 ft | 480 kts | 96° |
| 2026-04-23 22:34 | -35.09561 | 145.56212 | 41458 ft | 480 kts | 96° |
| 2026-04-23 22:34 | -35.09920 | 145.64308 | 41457 ft | 479 kts | 97° |
| 2026-04-23 22:35 | -35.10274 | 145.72401 | 41456 ft | 478 kts | 96° |
| 2026-04-23 22:35 | -35.10621 | 145.80479 | 41460 ft | 477 kts | 96° |
| 2026-04-23 22:36 | -35.10963 | 145.88548 | 41461 ft | 476 kts | 96° |
| 2026-04-23 22:36 | -35.11300 | 145.96625 | 41465 ft | 476 kts | 96° |
| 2026-04-23 22:37 | -35.11628 | 146.04625 | 41464 ft | 476 kts | 96° |
| 2026-04-23 22:37 | -35.11953 | 146.12666 | 41469 ft | 476 kts | 96° |
| 2026-04-23 22:38 | -35.12273 | 146.20715 | 41474 ft | 475 kts | 96° |
| 2026-04-23 22:38 | -35.12586 | 146.28746 | 41482 ft | 474 kts | 96° |
| 2026-04-23 22:39 | -35.12894 | 146.36789 | 41483 ft | 474 kts | 96° |
| 2026-04-23 22:39 | -35.13195 | 146.44757 | 41477 ft | 473 kts | 97° |
| 2026-04-23 22:40 | -35.13491 | 146.52737 | 41475 ft | 473 kts | 97° |
| 2026-04-23 22:41 | -35.13926 | 146.64754 | 41478 ft | 472 kts | 97° |
| 2026-04-23 22:41 | -35.14211 | 146.72775 | 41477 ft | 471 kts | 96° |
| 2026-04-23 22:42 | -35.14486 | 146.80714 | 41479 ft | 471 kts | 96° |
| 2026-04-23 22:42 | -35.14759 | 146.88702 | 41480 ft | 470 kts | 96° |
| 2026-04-23 22:43 | -35.15023 | 146.96602 | 41483 ft | 469 kts | 96° |
| 2026-04-23 22:43 | -35.15284 | 147.04561 | 41483 ft | 469 kts | 96° |
| 2026-04-23 22:44 | -35.15540 | 147.12495 | 41486 ft | 469 kts | 96° |
| 2026-04-23 22:44 | -35.15789 | 147.20418 | 41385 ft | 471 kts | 96° |
| 2026-04-23 22:44 | -35.15915 | 147.24440 | 40820 ft | 474 kts | 97° |
| 2026-04-23 22:45 | -35.16035 | 147.28397 | 40251 ft | 469 kts | 97° |
| 2026-04-23 22:45 | -35.16154 | 147.32349 | 39660 ft | 466 kts | 97° |
| 2026-04-23 22:45 | -35.16273 | 147.36291 | 39075 ft | 465 kts | 97° |
| 2026-04-23 22:45 | -35.16438 | 147.40230 | 38488 ft | 462 kts | 100° |
| 2026-04-23 22:46 | -35.16917 | 147.44026 | 37876 ft | 457 kts | 107° |
| 2026-04-23 22:46 | -35.17780 | 147.47742 | 37264 ft | 453 kts | 114° |
| 2026-04-23 22:46 | -35.18995 | 147.51276 | 36628 ft | 449 kts | 120° |
| 2026-04-23 22:46 | -35.20504 | 147.54562 | 36031 ft | 446 kts | 125° |
| 2026-04-23 22:47 | -35.22151 | 147.57771 | 35441 ft | 447 kts | 126° |
| 2026-04-23 22:47 | -35.23809 | 147.61002 | 34850 ft | 448 kts | 126° |
| 2026-04-23 22:47 | -35.25464 | 147.64232 | 34258 ft | 449 kts | 125° |
| 2026-04-23 22:47 | -35.27121 | 147.67467 | 33687 ft | 451 kts | 125° |
| 2026-04-23 22:48 | -35.28780 | 147.70714 | 33064 ft | 448 kts | 124° |
| 2026-04-23 22:48 | -35.30394 | 147.73877 | 32492 ft | 443 kts | 124° |
| 2026-04-23 22:48 | -35.32016 | 147.77060 | 31904 ft | 438 kts | 124° |
| 2026-04-23 22:48 | -35.33617 | 147.80203 | 31327 ft | 433 kts | 124° |
| 2026-04-23 22:49 | -35.35187 | 147.83287 | 30765 ft | 430 kts | 124° |
| 2026-04-23 22:49 | -35.36774 | 147.86408 | 30189 ft | 426 kts | 124° |
| 2026-04-23 22:49 | -35.38308 | 147.89427 | 29635 ft | 422 kts | 124° |
| 2026-04-23 22:49 | -35.39854 | 147.92473 | 29074 ft | 419 kts | 124° |
| 2026-04-23 22:50 | -35.41370 | 147.95462 | 28524 ft | 416 kts | 124° |
| 2026-04-23 22:50 | -35.42906 | 147.98492 | 27965 ft | 413 kts | 124° |
| 2026-04-23 22:50 | -35.44398 | 148.01440 | 27428 ft | 409 kts | 123° |
| 2026-04-23 22:50 | -35.45885 | 148.04381 | 26883 ft | 406 kts | 123° |
| 2026-04-23 22:51 | -35.47368 | 148.07315 | 26347 ft | 403 kts | 123° |
| 2026-04-23 22:51 | -35.48818 | 148.10187 | 25827 ft | 399 kts | 123° |
| 2026-04-23 22:51 | -35.50283 | 148.13089 | 25298 ft | 397 kts | 123° |
| 2026-04-23 22:51 | -35.51711 | 148.15922 | 24792 ft | 394 kts | 123° |
| 2026-04-23 22:52 | -35.53155 | 148.18788 | 24270 ft | 393 kts | 123° |
| 2026-04-23 22:52 | -35.54588 | 148.21637 | 23740 ft | 390 kts | 123° |
| 2026-04-23 22:52 | -35.55993 | 148.24431 | 23240 ft | 388 kts | 123° |
| 2026-04-23 22:52 | -35.57406 | 148.27243 | 22721 ft | 386 kts | 123° |
| 2026-04-23 22:53 | -35.58807 | 148.30034 | 22217 ft | 384 kts | 122° |
| 2026-04-23 22:53 | -35.60204 | 148.32816 | 21715 ft | 382 kts | 122° |
| 2026-04-23 22:53 | -35.61596 | 148.35594 | 21210 ft | 381 kts | 122° |
| 2026-04-23 22:53 | -35.62973 | 148.38342 | 20686 ft | 379 kts | 122° |
| 2026-04-23 22:54 | -35.64357 | 148.41109 | 20167 ft | 376 kts | 122° |
| 2026-04-23 22:54 | -35.65709 | 148.43814 | 19650 ft | 375 kts | 122° |
| 2026-04-23 22:54 | -35.67063 | 148.46524 | 19139 ft | 373 kts | 121° |
| 2026-04-23 22:54 | -35.68414 | 148.49229 | 18628 ft | 371 kts | 121° |
| 2026-04-23 22:55 | -35.69763 | 148.51935 | 18121 ft | 369 kts | 121° |
| 2026-04-23 22:55 | -35.71093 | 148.54604 | 17575 ft | 369 kts | 121° |
| 2026-04-23 22:55 | -35.72275 | 148.57384 | 16901 ft | 366 kts | 110° |
| 2026-04-23 22:55 | -35.72793 | 148.60379 | 16255 ft | 359 kts | 93° |
| 2026-04-23 22:56 | -35.72569 | 148.63443 | 15739 ft | 357 kts | 77° |
| 2026-04-23 22:56 | -35.71810 | 148.66306 | 15197 ft | 355 kts | 70° |
| 2026-04-23 22:56 | -35.70954 | 148.69182 | 14745 ft | 355 kts | 70° |
| 2026-04-23 22:56 | -35.70115 | 148.72017 | 14274 ft | 352 kts | 70° |
| 2026-04-23 22:57 | -35.69286 | 148.74818 | 13814 ft | 350 kts | 70° |
| 2026-04-23 22:57 | -35.68454 | 148.77624 | 13348 ft | 348 kts | 70° |
| 2026-04-23 22:57 | -35.67625 | 148.80414 | 12879 ft | 345 kts | 70° |
| 2026-04-23 22:57 | -35.66813 | 148.83144 | 12417 ft | 343 kts | 70° |
| 2026-04-23 22:58 | -35.65993 | 148.85898 | 11961 ft | 341 kts | 70° |
| 2026-04-23 22:58 | -35.65177 | 148.88637 | 11495 ft | 340 kts | 70° |
| 2026-04-23 22:58 | -35.64373 | 148.91332 | 11043 ft | 337 kts | 70° |
| 2026-04-23 22:58 | -35.63573 | 148.94011 | 10587 ft | 335 kts | 70° |
| 2026-04-23 22:59 | -35.62775 | 148.96680 | 10141 ft | 333 kts | 70° |
| 2026-04-23 22:59 | -35.61970 | 148.99370 | 9693 ft | 331 kts | 70° |
| 2026-04-23 22:59 | -35.61177 | 149.02017 | 9253 ft | 330 kts | 70° |
| 2026-04-23 22:59 | -35.60397 | 149.04616 | 8830 ft | 321 kts | 70° |
| 2026-04-23 23:00 | -35.59633 | 149.07124 | 8413 ft | 310 kts | 69° |
| 2026-04-23 23:00 | -35.58855 | 149.09558 | 8009 ft | 300 kts | 69° |
| 2026-04-23 23:00 | -35.58103 | 149.11903 | 7613 ft | 291 kts | 68° |
| 2026-04-23 23:00 | -35.57372 | 149.14180 | 7227 ft | 284 kts | 68° |
| 2026-04-23 23:01 | -35.56586 | 149.16357 | 6855 ft | 276 kts | 58° |
| 2026-04-23 23:01 | -35.55327 | 149.18056 | 6483 ft | 269 kts | 36° |
| 2026-04-23 23:01 | -35.53677 | 149.19106 | 6099 ft | 264 kts | 20° |
| 2026-04-23 23:01 | -35.51909 | 149.19421 | 5808 ft | 256 kts | 359° |
| 2026-04-23 23:02 | -35.50187 | 149.19398 | 5460 ft | 235 kts | 3° |
| 2026-04-23 23:02 | -35.48661 | 149.19437 | 5223 ft | 203 kts | 1° |
| 2026-04-23 23:02 | -35.47335 | 149.19440 | 4974 ft | 180 kts | 1° |
| 2026-04-23 23:02 | -35.46154 | 149.19443 | 4767 ft | 161 kts | 1° |
| 2026-04-23 23:03 | -35.45058 | 149.19446 | 4545 ft | 148 kts | 1° |
| 2026-04-23 23:03 | -35.44084 | 149.19446 | 4366 ft | 135 kts | 1° |
| 2026-04-23 23:03 | -35.43156 | 149.19446 | 4169 ft | 130 kts | 2° |
| 2026-04-23 23:03 | -35.42264 | 149.19447 | 4003 ft | 127 kts | 2° |
| 2026-04-23 23:04 | -35.41374 | 149.19447 | 3833 ft | 126 kts | 2° |
| 2026-04-23 23:04 | -35.40496 | 149.19447 | 3668 ft | 125 kts | 2° |
| 2026-04-23 23:04 | -35.39631 | 149.19449 | 3501 ft | 125 kts | 2° |
| 2026-04-23 23:04 | -35.38765 | 149.19449 | 3340 ft | 124 kts | 2° |
| 2026-04-23 23:05 | -35.37901 | 149.19449 | 3175 ft | 124 kts | 2° |
| 2026-04-23 23:05 | -35.37039 | 149.19449 | 3007 ft | 123 kts | 2° |
| 2026-04-23 23:05 | -35.36176 | 149.19449 | 2840 ft | 124 kts | 2° |
| 2026-04-23 23:05 | -35.35305 | 149.19449 | 2680 ft | 124 kts | 2° |
| 2026-04-23 23:06 | -35.34443 | 149.19449 | 2506 ft | 125 kts | 2° |
| 2026-04-23 23:06 | -35.33575 | 149.19447 | 2347 ft | 125 kts | 2° |
| 2026-04-23 23:06 | -35.32704 | 149.19447 | 2169 ft | 126 kts | 2° |
| 2026-04-23 23:06 | -35.31817 | 149.19446 | 1981 ft | 126 kts | 1° |
| 2026-04-23 23:07 | -35.30976 | 149.19446 | 1874 ft | 109 kts | 2° |
| 2026-04-23 23:07 | -35.30544 | 149.19446 | 1874 ft | 35 kts | 2° |
| 2026-04-23 23:07 | -35.30322 | 149.19447 | 1877 ft | 23 kts | 360° |
| 2026-04-23 23:07 | -35.30259 | 149.19449 | 1879 ft | 4 kts | 15° |
| 2026-04-23 23:08 | -35.30223 | 149.19510 | 1881 ft | 12 kts | 92° |
| 2026-04-23 23:08 | -35.30250 | 149.19611 | 1885 ft | 13 kts | 121° |
| 2026-04-23 23:08 | -35.30269 | 149.19661 | 1886 ft | 6 kts | 71° |
| 2026-04-23 23:08 | -35.30231 | 149.19707 | 1888 ft | 8 kts | 22° |
| 2026-04-23 23:09 | -35.30222 | 149.19711 | 1889 ft | 0 kts | 20° |